sensor_id;sensor_type;location;lat;lon;timestamp;temperature;humidity
31747;DHT22;18319;48.974;8.462;2023-04-24T00:00:53;11.60;99.90
31747;DHT22;18319;48.974;8.462;2023-04-24T00:03:22;11.60;99.90
31747;DHT22;18319;48.974;8.462;2023-04-24T00:05:48;11.60;99.90
31747;DHT22;18319;48.974;8.462;2023-04-24T00:08:16;11.60;99.90
31747;DHT22;18319;48.974;8.462;2023-04-24T00:10:43;11.50;99.90
31747;DHT22;18319;48.974;8.462;2023-04-24T00:13:11;11.50;99.90
31747;DHT22;18319;48.974;8.462;2023-04-24T00:15:38;11.60;99.90
31747;DHT22;18319;48.974;8.462;2023-04-24T00:18:05;11.70;99.90
31747;DHT22;18319;48.974;8.462;2023-04-24T00:20:31;11.80;99.90
31747;DHT22;18319;48.974;8.462;2023-04-24T00:22:58;11.90;99.90
31747;DHT22;18319;48.974;8.462;2023-04-24T00:25:26;11.90;99.90
31747;DHT22;18319;48.974;8.462;2023-04-24T00:27:53;12.00;99.90
31747;DHT22;18319;48.974;8.462;2023-04-24T00:30:20;12.10;99.90
31747;DHT22;18319;48.974;8.462;2023-04-24T00:32:47;12.10;99.90
31747;DHT22;18319;48.974;8.462;2023-04-24T00:35:13;12.20;99.90
31747;DHT22;18319;48.974;8.462;2023-04-24T00:37:41;12.20;99.90
31747;DHT22;18319;48.974;8.462;2023-04-24T00:40:08;12.20;99.90
31747;DHT22;18319;48.974;8.462;2023-04-24T00:42:36;12.20;99.90
31747;DHT22;18319;48.974;8.462;2023-04-24T00:45:04;12.20;99.90
31747;DHT22;18319;48.974;8.462;2023-04-24T00:47:32;12.20;99.90
31747;DHT22;18319;48.974;8.462;2023-04-24T00:50:01;12.10;99.90
31747;DHT22;18319;48.974;8.462;2023-04-24T00:52:28;12.10;99.90
31747;DHT22;18319;48.974;8.462;2023-04-24T00:54:56;12.10;99.90
31747;DHT22;18319;48.974;8.462;2023-04-24T00:57:23;12.10;99.90
31747;DHT22;18319;48.974;8.462;2023-04-24T00:59:52;12.10;99.90
31747;DHT22;18319;48.974;8.462;2023-04-24T01:02:21;12.00;99.90
31747;DHT22;18319;48.974;8.462;2023-04-24T01:04:49;12.00;99.90
31747;DHT22;18319;48.974;8.462;2023-04-24T01:07:17;11.90;99.90
31747;DHT22;18319;48.974;8.462;2023-04-24T01:09:45;11.90;99.90
31747;DHT22;18319;48.974;8.462;2023-04-24T01:12:15;11.90;99.90
31747;DHT22;18319;48.974;8.462;2023-04-24T01:14:42;11.70;99.90
31747;DHT22;18319;48.974;8.462;2023-04-24T01:17:10;11.60;99.90
31747;DHT22;18319;48.974;8.462;2023-04-24T01:19:38;11.50;99.90
31747;DHT22;18319;48.974;8.462;2023-04-24T01:22:10;11.40;99.90
31747;DHT22;18319;48.974;8.462;2023-04-24T01:24:37;11.40;99.90
31747;DHT22;18319;48.974;8.462;2023-04-24T01:27:04;11.30;99.90
31747;DHT22;18319;48.974;8.462;2023-04-24T01:29:31;11.30;99.90
31747;DHT22;18319;48.974;8.462;2023-04-24T01:31:58;11.30;99.90
31747;DHT22;18319;48.974;8.462;2023-04-24T01:34:25;11.40;99.90
31747;DHT22;18319;48.974;8.462;2023-04-24T01:36:52;11.50;99.90
31747;DHT22;18319;48.974;8.462;2023-04-24T01:39:20;11.60;99.90
31747;DHT22;18319;48.974;8.462;2023-04-24T01:41:48;11.50;99.90
31747;DHT22;18319;48.974;8.462;2023-04-24T01:44:16;11.60;99.90
31747;DHT22;18319;48.974;8.462;2023-04-24T01:46:44;11.70;99.90
31747;DHT22;18319;48.974;8.462;2023-04-24T01:49:11;11.60;99.90
31747;DHT22;18319;48.974;8.462;2023-04-24T01:51:37;11.80;99.90
31747;DHT22;18319;48.974;8.462;2023-04-24T01:54:04;11.80;99.90
31747;DHT22;18319;48.974;8.462;2023-04-24T01:56:33;11.80;99.90
31747;DHT22;18319;48.974;8.462;2023-04-24T01:59:02;11.80;99.90
31747;DHT22;18319;48.974;8.462;2023-04-24T02:01:34;11.70;99.90
31747;DHT22;18319;48.974;8.462;2023-04-24T02:04:02;11.60;99.90
31747;DHT22;18319;48.974;8.462;2023-04-24T02:06:29;11.60;99.90
31747;DHT22;18319;48.974;8.462;2023-04-24T02:08:56;11.60;99.90
31747;DHT22;18319;48.974;8.462;2023-04-24T02:11:23;11.60;99.90
31747;DHT22;18319;48.974;8.462;2023-04-24T02:13:51;11.40;99.90
31747;DHT22;18319;48.974;8.462;2023-04-24T02:16:18;11.30;99.90
31747;DHT22;18319;48.974;8.462;2023-04-24T02:18:45;11.20;99.90
31747;DHT22;18319;48.974;8.462;2023-04-24T02:21:12;11.00;99.90
31747;DHT22;18319;48.974;8.462;2023-04-24T02:23:39;11.00;99.90
31747;DHT22;18319;48.974;8.462;2023-04-24T02:26:06;10.90;99.90
31747;DHT22;18319;48.974;8.462;2023-04-24T02:28:33;10.90;99.90
31747;DHT22;18319;48.974;8.462;2023-04-24T02:31:01;11.00;99.90
31747;DHT22;18319;48.974;8.462;2023-04-24T02:33:27;11.10;99.90
31747;DHT22;18319;48.974;8.462;2023-04-24T02:35:54;11.20;99.90
31747;DHT22;18319;48.974;8.462;2023-04-24T02:38:21;11.20;99.90
31747;DHT22;18319;48.974;8.462;2023-04-24T02:40:48;11.30;99.90
31747;DHT22;18319;48.974;8.462;2023-04-24T02:43:14;11.40;99.90
31747;DHT22;18319;48.974;8.462;2023-04-24T02:45:41;11.50;99.90
31747;DHT22;18319;48.974;8.462;2023-04-24T02:48:09;11.50;99.90
31747;DHT22;18319;48.974;8.462;2023-04-24T02:50:36;11.60;99.90
31747;DHT22;18319;48.974;8.462;2023-04-24T02:53:03;11.60;99.90
31747;DHT22;18319;48.974;8.462;2023-04-24T02:55:29;11.70;99.90
31747;DHT22;18319;48.974;8.462;2023-04-24T02:57:56;11.70;99.90
31747;DHT22;18319;48.974;8.462;2023-04-24T03:00:23;11.70;99.90
31747;DHT22;18319;48.974;8.462;2023-04-24T03:02:50;11.70;99.90
31747;DHT22;18319;48.974;8.462;2023-04-24T03:05:18;11.60;99.90
31747;DHT22;18319;48.974;8.462;2023-04-24T03:07:45;11.60;99.90
31747;DHT22;18319;48.974;8.462;2023-04-24T03:10:12;11.50;99.90
31747;DHT22;18319;48.974;8.462;2023-04-24T03:12:39;11.40;99.90
31747;DHT22;18319;48.974;8.462;2023-04-24T03:15:07;11.30;99.90
31747;DHT22;18319;48.974;8.462;2023-04-24T03:17:33;11.20;99.90
31747;DHT22;18319;48.974;8.462;2023-04-24T03:20:00;11.10;99.90
31747;DHT22;18319;48.974;8.462;2023-04-24T03:22:29;11.00;99.90
31747;DHT22;18319;48.974;8.462;2023-04-24T03:24:57;10.80;99.90
31747;DHT22;18319;48.974;8.462;2023-04-24T03:27:24;10.80;99.90
31747;DHT22;18319;48.974;8.462;2023-04-24T03:29:51;10.70;99.90
31747;DHT22;18319;48.974;8.462;2023-04-24T03:32:20;10.70;99.90
31747;DHT22;18319;48.974;8.462;2023-04-24T03:34:47;10.60;99.90
31747;DHT22;18319;48.974;8.462;2023-04-24T03:37:14;10.60;99.90
31747;DHT22;18319;48.974;8.462;2023-04-24T03:39:42;10.50;99.90
31747;DHT22;18319;48.974;8.462;2023-04-24T03:42:09;10.50;99.90
31747;DHT22;18319;48.974;8.462;2023-04-24T03:44:36;10.40;99.90
31747;DHT22;18319;48.974;8.462;2023-04-24T03:47:03;10.50;99.90
31747;DHT22;18319;48.974;8.462;2023-04-24T03:49:29;10.40;99.90
31747;DHT22;18319;48.974;8.462;2023-04-24T03:51:56;10.40;99.90
31747;DHT22;18319;48.974;8.462;2023-04-24T03:54:23;10.40;99.90
31747;DHT22;18319;48.974;8.462;2023-04-24T03:56:51;10.40;99.90
31747;DHT22;18319;48.974;8.462;2023-04-24T03:59:18;10.40;99.90
31747;DHT22;18319;48.974;8.462;2023-04-24T04:01:45;10.40;99.90
31747;DHT22;18319;48.974;8.462;2023-04-24T04:04:11;10.30;99.90
31747;DHT22;18319;48.974;8.462;2023-04-24T04:06:38;10.30;99.90
31747;DHT22;18319;48.974;8.462;2023-04-24T04:09:05;10.30;99.90
31747;DHT22;18319;48.974;8.462;2023-04-24T04:11:32;10.30;99.90
31747;DHT22;18319;48.974;8.462;2023-04-24T04:14:00;10.20;99.90
31747;DHT22;18319;48.974;8.462;2023-04-24T04:16:27;10.20;99.90
31747;DHT22;18319;48.974;8.462;2023-04-24T04:18:54;10.20;99.90
31747;DHT22;18319;48.974;8.462;2023-04-24T04:21:21;10.20;99.90
31747;DHT22;18319;48.974;8.462;2023-04-24T04:23:48;10.30;99.90
31747;DHT22;18319;48.974;8.462;2023-04-24T04:26:15;10.20;99.90
31747;DHT22;18319;48.974;8.462;2023-04-24T04:28:41;10.20;99.90
31747;DHT22;18319;48.974;8.462;2023-04-24T04:31:11;10.10;99.90
31747;DHT22;18319;48.974;8.462;2023-04-24T04:33:40;10.00;99.90
31747;DHT22;18319;48.974;8.462;2023-04-24T04:36:07;10.00;99.90
31747;DHT22;18319;48.974;8.462;2023-04-24T04:41:03;9.90;99.90
31747;DHT22;18319;48.974;8.462;2023-04-24T04:43:31;9.90;99.90
31747;DHT22;18319;48.974;8.462;2023-04-24T04:45:59;9.80;99.90
31747;DHT22;18319;48.974;8.462;2023-04-24T04:48:30;9.70;99.90
31747;DHT22;18319;48.974;8.462;2023-04-24T04:50:57;9.70;99.90
31747;DHT22;18319;48.974;8.462;2023-04-24T04:53:23;9.70;99.90
31747;DHT22;18319;48.974;8.462;2023-04-24T04:55:51;9.50;99.90
31747;DHT22;18319;48.974;8.462;2023-04-24T04:58:18;9.70;99.90
31747;DHT22;18319;48.974;8.462;2023-04-24T05:00:44;9.60;99.90
31747;DHT22;18319;48.974;8.462;2023-04-24T05:03:11;9.60;99.90
31747;DHT22;18319;48.974;8.462;2023-04-24T05:05:39;9.50;99.90
31747;DHT22;18319;48.974;8.462;2023-04-24T05:08:06;9.50;99.90
31747;DHT22;18319;48.974;8.462;2023-04-24T05:10:33;9.50;99.90
31747;DHT22;18319;48.974;8.462;2023-04-24T05:13:02;9.50;99.90
31747;DHT22;18319;48.974;8.462;2023-04-24T05:15:29;9.50;99.90
31747;DHT22;18319;48.974;8.462;2023-04-24T05:17:56;9.60;99.90
31747;DHT22;18319;48.974;8.462;2023-04-24T05:20:23;9.60;99.90
31747;DHT22;18319;48.974;8.462;2023-04-24T05:22:51;9.80;99.90
31747;DHT22;18319;48.974;8.462;2023-04-24T05:25:18;9.90;99.90
31747;DHT22;18319;48.974;8.462;2023-04-24T05:27:45;10.20;99.90
31747;DHT22;18319;48.974;8.462;2023-04-24T05:30:12;10.40;99.90
31747;DHT22;18319;48.974;8.462;2023-04-24T05:32:39;10.60;99.90
31747;DHT22;18319;48.974;8.462;2023-04-24T05:35:06;10.80;99.90
31747;DHT22;18319;48.974;8.462;2023-04-24T05:37:33;11.00;99.90
31747;DHT22;18319;48.974;8.462;2023-04-24T05:40:01;11.10;99.90
31747;DHT22;18319;48.974;8.462;2023-04-24T05:42:30;11.20;99.90
31747;DHT22;18319;48.974;8.462;2023-04-24T05:44:57;11.40;99.90
31747;DHT22;18319;48.974;8.462;2023-04-24T05:47:24;11.50;99.90
31747;DHT22;18319;48.974;8.462;2023-04-24T05:49:52;11.70;99.90
31747;DHT22;18319;48.974;8.462;2023-04-24T05:52:18;11.90;99.90
31747;DHT22;18319;48.974;8.462;2023-04-24T05:54:45;12.10;99.90
31747;DHT22;18319;48.974;8.462;2023-04-24T05:57:13;12.30;99.90
31747;DHT22;18319;48.974;8.462;2023-04-24T05:59:40;12.20;99.90
31747;DHT22;18319;48.974;8.462;2023-04-24T06:02:07;12.20;99.90
31747;DHT22;18319;48.974;8.462;2023-04-24T06:04:34;12.10;99.90
31747;DHT22;18319;48.974;8.462;2023-04-24T06:07:01;12.10;99.90
31747;DHT22;18319;48.974;8.462;2023-04-24T06:09:28;12.20;99.90
31747;DHT22;18319;48.974;8.462;2023-04-24T06:11:55;12.30;99.90
31747;DHT22;18319;48.974;8.462;2023-04-24T06:14:23;12.40;99.90
31747;DHT22;18319;48.974;8.462;2023-04-24T06:16:50;12.40;99.90
31747;DHT22;18319;48.974;8.462;2023-04-24T06:19:17;12.50;99.90
31747;DHT22;18319;48.974;8.462;2023-04-24T06:21:44;12.40;99.90
31747;DHT22;18319;48.974;8.462;2023-04-24T06:24:10;12.40;99.90
31747;DHT22;18319;48.974;8.462;2023-04-24T06:26:37;12.30;99.90
31747;DHT22;18319;48.974;8.462;2023-04-24T06:29:04;12.20;99.90
31747;DHT22;18319;48.974;8.462;2023-04-24T06:31:34;12.20;99.90
31747;DHT22;18319;48.974;8.462;2023-04-24T06:34:02;12.10;99.90
31747;DHT22;18319;48.974;8.462;2023-04-24T06:36:29;12.00;99.90
31747;DHT22;18319;48.974;8.462;2023-04-24T06:38:56;11.90;99.90
31747;DHT22;18319;48.974;8.462;2023-04-24T06:41:23;11.90;99.90
31747;DHT22;18319;48.974;8.462;2023-04-24T06:43:50;11.90;99.90
31747;DHT22;18319;48.974;8.462;2023-04-24T06:46:17;12.00;99.90
31747;DHT22;18319;48.974;8.462;2023-04-24T06:48:45;12.10;99.90
31747;DHT22;18319;48.974;8.462;2023-04-24T06:51:12;12.20;99.90
31747;DHT22;18319;48.974;8.462;2023-04-24T06:53:39;12.30;99.90
31747;DHT22;18319;48.974;8.462;2023-04-24T06:56:05;12.40;99.90
31747;DHT22;18319;48.974;8.462;2023-04-24T06:58:32;12.50;99.90
31747;DHT22;18319;48.974;8.462;2023-04-24T07:00:59;12.60;99.90
31747;DHT22;18319;48.974;8.462;2023-04-24T07:03:26;12.60;99.90
31747;DHT22;18319;48.974;8.462;2023-04-24T07:05:54;12.60;99.90
31747;DHT22;18319;48.974;8.462;2023-04-24T07:08:21;12.70;99.90
31747;DHT22;18319;48.974;8.462;2023-04-24T07:10:49;12.90;99.90
31747;DHT22;18319;48.974;8.462;2023-04-24T07:13:17;12.90;99.90
31747;DHT22;18319;48.974;8.462;2023-04-24T07:15:44;12.80;99.90
31747;DHT22;18319;48.974;8.462;2023-04-24T07:18:11;12.90;99.90
31747;DHT22;18319;48.974;8.462;2023-04-24T07:20:37;13.00;99.90
31747;DHT22;18319;48.974;8.462;2023-04-24T07:23:06;13.30;99.90
31747;DHT22;18319;48.974;8.462;2023-04-24T07:25:33;13.80;99.90
31747;DHT22;18319;48.974;8.462;2023-04-24T07:27:59;14.00;99.90
31747;DHT22;18319;48.974;8.462;2023-04-24T07:30:26;14.10;99.90
31747;DHT22;18319;48.974;8.462;2023-04-24T07:32:54;13.90;99.90
31747;DHT22;18319;48.974;8.462;2023-04-24T07:35:21;13.90;99.90
31747;DHT22;18319;48.974;8.462;2023-04-24T07:37:48;14.10;99.90
31747;DHT22;18319;48.974;8.462;2023-04-24T07:40:16;14.30;99.90
31747;DHT22;18319;48.974;8.462;2023-04-24T07:42:43;14.60;99.90
31747;DHT22;18319;48.974;8.462;2023-04-24T07:45:10;15.00;99.90
31747;DHT22;18319;48.974;8.462;2023-04-24T07:47:37;15.10;99.90
31747;DHT22;18319;48.974;8.462;2023-04-24T07:50:06;14.90;99.90
31747;DHT22;18319;48.974;8.462;2023-04-24T07:52:33;14.50;99.90
31747;DHT22;18319;48.974;8.462;2023-04-24T07:54:59;14.10;99.90
31747;DHT22;18319;48.974;8.462;2023-04-24T07:57:28;13.80;99.90
31747;DHT22;18319;48.974;8.462;2023-04-24T07:59:55;13.40;99.90
31747;DHT22;18319;48.974;8.462;2023-04-24T08:02:22;13.20;99.90
31747;DHT22;18319;48.974;8.462;2023-04-24T08:04:51;12.90;99.90
31747;DHT22;18319;48.974;8.462;2023-04-24T08:07:19;12.50;99.90
31747;DHT22;18319;48.974;8.462;2023-04-24T08:09:45;12.30;99.90
31747;DHT22;18319;48.974;8.462;2023-04-24T08:12:12;12.20;99.90
31747;DHT22;18319;48.974;8.462;2023-04-24T08:14:41;12.20;99.90
31747;DHT22;18319;48.974;8.462;2023-04-24T08:17:07;12.50;99.90
31747;DHT22;18319;48.974;8.462;2023-04-24T08:19:34;12.90;99.90
31747;DHT22;18319;48.974;8.462;2023-04-24T08:22:01;13.00;99.90
31747;DHT22;18319;48.974;8.462;2023-04-24T08:24:29;13.10;99.90
31747;DHT22;18319;48.974;8.462;2023-04-24T08:26:56;13.20;99.90
31747;DHT22;18319;48.974;8.462;2023-04-24T08:29:23;13.10;99.90
31747;DHT22;18319;48.974;8.462;2023-04-24T08:31:52;12.90;99.90
31747;DHT22;18319;48.974;8.462;2023-04-24T08:34:20;12.40;99.90
31747;DHT22;18319;48.974;8.462;2023-04-24T08:36:47;12.20;99.90
31747;DHT22;18319;48.974;8.462;2023-04-24T08:39:14;12.00;99.90
31747;DHT22;18319;48.974;8.462;2023-04-24T08:41:42;11.90;99.90
31747;DHT22;18319;48.974;8.462;2023-04-24T08:44:11;11.90;99.90
31747;DHT22;18319;48.974;8.462;2023-04-24T08:46:41;11.90;99.90
31747;DHT22;18319;48.974;8.462;2023-04-24T08:49:10;12.20;99.90
31747;DHT22;18319;48.974;8.462;2023-04-24T08:51:39;12.50;99.90
31747;DHT22;18319;48.974;8.462;2023-04-24T08:54:07;12.80;99.90
31747;DHT22;18319;48.974;8.462;2023-04-24T08:56:37;12.90;99.90
31747;DHT22;18319;48.974;8.462;2023-04-24T08:59:06;12.90;99.90
31747;DHT22;18319;48.974;8.462;2023-04-24T09:01:33;13.00;99.90
31747;DHT22;18319;48.974;8.462;2023-04-24T09:04:02;13.60;99.90
31747;DHT22;18319;48.974;8.462;2023-04-24T09:06:32;14.30;99.90
31747;DHT22;18319;48.974;8.462;2023-04-24T09:09:00;15.50;99.90
31747;DHT22;18319;48.974;8.462;2023-04-24T09:11:29;16.60;99.90
31747;DHT22;18319;48.974;8.462;2023-04-24T09:13:57;17.10;99.90
31747;DHT22;18319;48.974;8.462;2023-04-24T09:16:25;16.90;99.90
31747;DHT22;18319;48.974;8.462;2023-04-24T09:18:53;16.70;99.90
31747;DHT22;18319;48.974;8.462;2023-04-24T09:21:20;16.50;99.90
31747;DHT22;18319;48.974;8.462;2023-04-24T09:23:57;16.00;99.90
31747;DHT22;18319;48.974;8.462;2023-04-24T09:26:24;15.50;99.90
31747;DHT22;18319;48.974;8.462;2023-04-24T09:28:51;15.10;99.90
31747;DHT22;18319;48.974;8.462;2023-04-24T09:31:19;15.10;99.90
31747;DHT22;18319;48.974;8.462;2023-04-24T09:33:54;15.00;99.90
31747;DHT22;18319;48.974;8.462;2023-04-24T09:36:27;15.00;99.90
31747;DHT22;18319;48.974;8.462;2023-04-24T09:38:59;14.50;99.90
31747;DHT22;18319;48.974;8.462;2023-04-24T09:41:27;14.50;99.90
31747;DHT22;18319;48.974;8.462;2023-04-24T09:43:54;14.40;99.90
31747;DHT22;18319;48.974;8.462;2023-04-24T09:46:28;14.40;99.90
31747;DHT22;18319;48.974;8.462;2023-04-24T09:48:55;14.10;99.90
31747;DHT22;18319;48.974;8.462;2023-04-24T09:51:34;13.80;99.90
31747;DHT22;18319;48.974;8.462;2023-04-24T09:54:03;13.70;99.90
31747;DHT22;18319;48.974;8.462;2023-04-24T09:56:33;13.90;99.90
31747;DHT22;18319;48.974;8.462;2023-04-24T09:59:07;14.00;99.90
31747;DHT22;18319;48.974;8.462;2023-04-24T10:01:34;14.10;99.90
31747;DHT22;18319;48.974;8.462;2023-04-24T10:04:01;14.00;99.90
31747;DHT22;18319;48.974;8.462;2023-04-24T10:06:35;14.00;99.90
31747;DHT22;18319;48.974;8.462;2023-04-24T10:09:03;14.30;99.90
31747;DHT22;18319;48.974;8.462;2023-04-24T10:11:30;14.60;99.90
31747;DHT22;18319;48.974;8.462;2023-04-24T10:13:57;14.90;99.90
31747;DHT22;18319;48.974;8.462;2023-04-24T10:16:26;15.00;99.90
31747;DHT22;18319;48.974;8.462;2023-04-24T10:18:54;14.70;99.90
31747;DHT22;18319;48.974;8.462;2023-04-24T10:21:21;14.80;99.90
31747;DHT22;18319;48.974;8.462;2023-04-24T10:23:49;14.90;99.90
31747;DHT22;18319;48.974;8.462;2023-04-24T10:26:18;14.80;99.90
31747;DHT22;18319;48.974;8.462;2023-04-24T10:28:46;14.80;99.90
31747;DHT22;18319;48.974;8.462;2023-04-24T10:31:13;14.60;99.90
31747;DHT22;18319;48.974;8.462;2023-04-24T10:33:41;14.40;99.90
31747;DHT22;18319;48.974;8.462;2023-04-24T10:36:09;14.10;99.90
31747;DHT22;18319;48.974;8.462;2023-04-24T10:38:38;13.70;99.90
31747;DHT22;18319;48.974;8.462;2023-04-24T10:41:07;13.60;99.90
31747;DHT22;18319;48.974;8.462;2023-04-24T10:43:36;13.50;99.90
31747;DHT22;18319;48.974;8.462;2023-04-24T10:46:04;13.40;99.90
31747;DHT22;18319;48.974;8.462;2023-04-24T10:48:32;13.30;99.90
31747;DHT22;18319;48.974;8.462;2023-04-24T10:50:59;13.30;99.90
31747;DHT22;18319;48.974;8.462;2023-04-24T10:53:28;13.10;99.90
31747;DHT22;18319;48.974;8.462;2023-04-24T10:55:58;13.00;99.90
31747;DHT22;18319;48.974;8.462;2023-04-24T10:58:37;13.00;99.90
31747;DHT22;18319;48.974;8.462;2023-04-24T11:01:05;12.90;99.90
31747;DHT22;18319;48.974;8.462;2023-04-24T11:03:34;12.70;99.90
31747;DHT22;18319;48.974;8.462;2023-04-24T11:06:02;12.50;99.90
31747;DHT22;18319;48.974;8.462;2023-04-24T11:08:32;12.30;99.90
31747;DHT22;18319;48.974;8.462;2023-04-24T11:11:06;12.10;99.90
31747;DHT22;18319;48.974;8.462;2023-04-24T11:14:07;12.10;99.90
31747;DHT22;18319;48.974;8.462;2023-04-24T11:16:42;12.10;99.90
31747;DHT22;18319;48.974;8.462;2023-04-24T11:19:17;12.10;99.90
31747;DHT22;18319;48.974;8.462;2023-04-24T11:21:46;12.20;99.90
31747;DHT22;18319;48.974;8.462;2023-04-24T11:24:27;12.20;99.90
31747;DHT22;18319;48.974;8.462;2023-04-24T11:27:00;12.40;99.90
31747;DHT22;18319;48.974;8.462;2023-04-24T11:29:47;12.50;99.90
31747;DHT22;18319;48.974;8.462;2023-04-24T11:32:24;12.80;99.90
31747;DHT22;18319;48.974;8.462;2023-04-24T11:34:52;12.90;99.90
31747;DHT22;18319;48.974;8.462;2023-04-24T11:37:19;12.80;99.90
31747;DHT22;18319;48.974;8.462;2023-04-24T11:39:46;12.80;99.90
31747;DHT22;18319;48.974;8.462;2023-04-24T11:42:14;12.80;99.90
31747;DHT22;18319;48.974;8.462;2023-04-24T11:44:42;12.80;99.90
31747;DHT22;18319;48.974;8.462;2023-04-24T11:47:10;12.50;99.90
31747;DHT22;18319;48.974;8.462;2023-04-24T11:49:37;12.20;99.90
31747;DHT22;18319;48.974;8.462;2023-04-24T11:52:05;12.10;99.90
31747;DHT22;18319;48.974;8.462;2023-04-24T11:54:32;12.10;99.90
31747;DHT22;18319;48.974;8.462;2023-04-24T11:56:59;12.10;99.90
31747;DHT22;18319;48.974;8.462;2023-04-24T11:59:30;12.10;99.90
31747;DHT22;18319;48.974;8.462;2023-04-24T12:02:01;12.30;99.90
31747;DHT22;18319;48.974;8.462;2023-04-24T12:04:38;12.60;99.90
31747;DHT22;18319;48.974;8.462;2023-04-24T12:07:05;12.90;99.90
31747;DHT22;18319;48.974;8.462;2023-04-24T12:09:44;13.20;99.90
31747;DHT22;18319;48.974;8.462;2023-04-24T12:12:11;13.30;99.90
31747;DHT22;18319;48.974;8.462;2023-04-24T12:14:48;13.10;99.90
31747;DHT22;18319;48.974;8.462;2023-04-24T12:17:16;13.00;99.90
31747;DHT22;18319;48.974;8.462;2023-04-24T12:19:48;12.80;99.90
31747;DHT22;18319;48.974;8.462;2023-04-24T12:22:16;12.60;99.90
31747;DHT22;18319;48.974;8.462;2023-04-24T12:25:02;12.70;99.90
31747;DHT22;18319;48.974;8.462;2023-04-24T12:27:30;13.10;99.90
31747;DHT22;18319;48.974;8.462;2023-04-24T12:29:59;13.30;99.90
31747;DHT22;18319;48.974;8.462;2023-04-24T12:32:26;13.60;99.90
31747;DHT22;18319;48.974;8.462;2023-04-24T12:34:55;13.80;99.90
31747;DHT22;18319;48.974;8.462;2023-04-24T12:37:23;13.90;99.90
31747;DHT22;18319;48.974;8.462;2023-04-24T12:40:02;14.00;99.90
31747;DHT22;18319;48.974;8.462;2023-04-24T12:42:30;13.80;99.90
31747;DHT22;18319;48.974;8.462;2023-04-24T12:44:57;13.70;99.90
31747;DHT22;18319;48.974;8.462;2023-04-24T12:47:25;13.70;99.90
31747;DHT22;18319;48.974;8.462;2023-04-24T12:49:53;13.80;99.90
31747;DHT22;18319;48.974;8.462;2023-04-24T12:52:21;14.00;99.90
31747;DHT22;18319;48.974;8.462;2023-04-24T12:54:49;14.00;99.90
31747;DHT22;18319;48.974;8.462;2023-04-24T12:57:16;13.90;99.90
31747;DHT22;18319;48.974;8.462;2023-04-24T12:59:42;13.80;99.90
31747;DHT22;18319;48.974;8.462;2023-04-24T13:02:09;13.80;99.90
31747;DHT22;18319;48.974;8.462;2023-04-24T13:04:37;13.90;99.90
31747;DHT22;18319;48.974;8.462;2023-04-24T13:07:07;14.00;99.90
31747;DHT22;18319;48.974;8.462;2023-04-24T13:09:34;14.10;99.90
31747;DHT22;18319;48.974;8.462;2023-04-24T13:12:01;14.20;99.90
31747;DHT22;18319;48.974;8.462;2023-04-24T13:14:28;14.00;99.90
31747;DHT22;18319;48.974;8.462;2023-04-24T13:16:56;13.80;99.90
31747;DHT22;18319;48.974;8.462;2023-04-24T13:19:24;13.60;99.90
31747;DHT22;18319;48.974;8.462;2023-04-24T13:21:51;13.60;99.90
31747;DHT22;18319;48.974;8.462;2023-04-24T13:24:19;13.70;99.90
31747;DHT22;18319;48.974;8.462;2023-04-24T13:26:46;13.90;99.90
31747;DHT22;18319;48.974;8.462;2023-04-24T13:29:13;14.10;99.90
31747;DHT22;18319;48.974;8.462;2023-04-24T13:31:39;14.20;99.90
31747;DHT22;18319;48.974;8.462;2023-04-24T13:34:06;14.00;99.90
31747;DHT22;18319;48.974;8.462;2023-04-24T13:36:33;13.90;99.90
31747;DHT22;18319;48.974;8.462;2023-04-24T13:39:00;13.90;99.90
31747;DHT22;18319;48.974;8.462;2023-04-24T13:41:30;13.80;99.90
31747;DHT22;18319;48.974;8.462;2023-04-24T13:43:57;13.90;99.90
31747;DHT22;18319;48.974;8.462;2023-04-24T13:46:23;13.80;99.90
31747;DHT22;18319;48.974;8.462;2023-04-24T13:48:50;14.00;99.90
31747;DHT22;18319;48.974;8.462;2023-04-24T13:51:18;14.20;99.90
31747;DHT22;18319;48.974;8.462;2023-04-24T13:53:44;14.40;99.90
31747;DHT22;18319;48.974;8.462;2023-04-24T13:56:12;14.30;99.90
31747;DHT22;18319;48.974;8.462;2023-04-24T13:58:41;14.30;99.90
31747;DHT22;18319;48.974;8.462;2023-04-24T14:01:08;14.40;99.90
31747;DHT22;18319;48.974;8.462;2023-04-24T14:03:35;14.60;99.90
31747;DHT22;18319;48.974;8.462;2023-04-24T14:06:03;14.60;99.90
31747;DHT22;18319;48.974;8.462;2023-04-24T14:08:31;14.50;99.90
31747;DHT22;18319;48.974;8.462;2023-04-24T14:10:58;14.40;99.90
31747;DHT22;18319;48.974;8.462;2023-04-24T14:13:25;14.40;99.90
31747;DHT22;18319;48.974;8.462;2023-04-24T14:15:54;14.40;99.90
31747;DHT22;18319;48.974;8.462;2023-04-24T14:18:21;14.50;99.90
31747;DHT22;18319;48.974;8.462;2023-04-24T14:20:48;14.40;99.90
31747;DHT22;18319;48.974;8.462;2023-04-24T14:23:15;14.20;99.90
31747;DHT22;18319;48.974;8.462;2023-04-24T14:25:42;14.00;99.90
31747;DHT22;18319;48.974;8.462;2023-04-24T14:28:09;14.00;99.90
31747;DHT22;18319;48.974;8.462;2023-04-24T14:30:36;14.00;99.90
31747;DHT22;18319;48.974;8.462;2023-04-24T14:33:04;14.30;99.90
31747;DHT22;18319;48.974;8.462;2023-04-24T14:35:31;14.50;99.90
31747;DHT22;18319;48.974;8.462;2023-04-24T14:37:59;14.50;99.90
31747;DHT22;18319;48.974;8.462;2023-04-24T14:40:26;14.50;99.90
31747;DHT22;18319;48.974;8.462;2023-04-24T14:42:53;14.20;99.90
31747;DHT22;18319;48.974;8.462;2023-04-24T14:45:19;14.00;99.90
31747;DHT22;18319;48.974;8.462;2023-04-24T14:47:46;13.70;99.90
31747;DHT22;18319;48.974;8.462;2023-04-24T14:50:14;13.50;99.90
31747;DHT22;18319;48.974;8.462;2023-04-24T14:52:41;13.20;99.90
31747;DHT22;18319;48.974;8.462;2023-04-24T14:55:08;13.00;99.90
31747;DHT22;18319;48.974;8.462;2023-04-24T14:57:35;13.00;99.90
31747;DHT22;18319;48.974;8.462;2023-04-24T15:00:02;13.00;99.90
31747;DHT22;18319;48.974;8.462;2023-04-24T15:02:32;13.00;99.90
31747;DHT22;18319;48.974;8.462;2023-04-24T15:04:59;13.00;99.90
31747;DHT22;18319;48.974;8.462;2023-04-24T15:07:28;13.00;99.90
31747;DHT22;18319;48.974;8.462;2023-04-24T15:09:54;12.90;99.90
31747;DHT22;18319;48.974;8.462;2023-04-24T15:12:21;12.80;99.90
31747;DHT22;18319;48.974;8.462;2023-04-24T15:14:48;12.70;99.90
31747;DHT22;18319;48.974;8.462;2023-04-24T15:17:15;12.60;99.90
31747;DHT22;18319;48.974;8.462;2023-04-24T15:19:42;12.50;99.90
31747;DHT22;18319;48.974;8.462;2023-04-24T15:22:09;12.40;99.90
31747;DHT22;18319;48.974;8.462;2023-04-24T15:24:37;12.30;99.90
31747;DHT22;18319;48.974;8.462;2023-04-24T15:27:04;12.40;99.90
31747;DHT22;18319;48.974;8.462;2023-04-24T15:29:31;12.50;99.90
31747;DHT22;18319;48.974;8.462;2023-04-24T15:31:58;12.60;99.90
31747;DHT22;18319;48.974;8.462;2023-04-24T15:34:24;12.80;99.90
31747;DHT22;18319;48.974;8.462;2023-04-24T15:36:51;12.90;99.90
31747;DHT22;18319;48.974;8.462;2023-04-24T15:39:22;12.90;99.90